createdAt,value
2019-01-19T00:00:02.672Z,0.00
2019-01-19T00:01:02.647Z,0.00
2019-01-19T00:02:03.179Z,0.00
2019-01-19T00:03:02.934Z,0.00
2019-01-19T00:04:03.110Z,0.00
2019-01-19T00:05:10.214Z,0.00
2019-01-19T00:06:03.889Z,0.00
2019-01-19T00:07:04.614Z,0.00
2019-01-19T00:08:04.743Z,0.00
2019-01-19T00:09:04.532Z,0.00
2019-01-19T00:10:04.773Z,0.00
2019-01-19T00:11:05.348Z,0.00
2019-01-19T00:12:05.150Z,0.00
2019-01-19T00:13:05.635Z,0.00
2019-01-19T00:14:05.921Z,0.00
2019-01-19T00:15:06.174Z,0.00
2019-01-19T00:16:06.240Z,0.00
2019-01-19T00:17:06.949Z,0.00
2019-01-19T00:18:07.216Z,0.00
2019-01-19T00:19:07.505Z,0.00
2019-01-19T00:20:07.799Z,0.00
2019-01-19T00:21:08.216Z,0.00
2019-01-19T00:22:08.418Z,0.00
2019-01-19T00:23:08.659Z,0.00
2019-01-19T00:24:09.028Z,0.00
2019-01-19T00:25:09.249Z,0.00
2019-01-19T00:26:09.734Z,0.00
2019-01-19T00:27:09.904Z,0.00
2019-01-19T00:28:10.136Z,0.00
2019-01-19T00:29:10.535Z,0.00
2019-01-19T00:30:11.139Z,0.00
2019-01-19T00:31:11.534Z,0.00
2019-01-19T00:32:11.570Z,0.00
2019-01-19T00:33:11.498Z,0.00
2019-01-19T00:34:11.915Z,0.00
2019-01-19T00:35:17.766Z,0.00
2019-01-19T00:36:12.438Z,0.00
2019-01-19T00:37:12.835Z,0.00
2019-01-19T00:38:12.933Z,0.00
2019-01-19T00:39:13.114Z,0.00
2019-01-19T00:40:13.362Z,0.00
2019-01-19T00:41:13.743Z,0.00
2019-01-19T00:42:13.824Z,0.00
2019-01-19T00:43:13.896Z,0.00
2019-01-19T00:44:13.933Z,0.00
2019-01-19T00:45:14.388Z,0.00
2019-01-19T00:46:14.314Z,0.00
2019-01-19T00:47:14.393Z,0.00
2019-01-19T00:48:14.483Z,0.00
2019-01-19T00:49:14.706Z,0.00
2019-01-19T00:50:14.865Z,0.00
2019-01-19T00:51:15.388Z,0.00
2019-01-19T00:52:15.762Z,0.00
2019-01-19T00:53:16.106Z,0.00
2019-01-19T00:54:16.306Z,0.00
2019-01-19T00:55:16.654Z,0.00
2019-01-19T00:56:16.729Z,0.00
2019-01-19T00:57:17.042Z,0.00
2019-01-19T00:58:17.100Z,0.00
2019-01-19T00:59:17.321Z,0.00
2019-01-19T01:00:17.878Z,0.00
2019-01-19T01:01:17.743Z,0.00
2019-01-19T01:02:18.440Z,0.00
2019-01-19T01:03:18.700Z,0.00
2019-01-19T01:04:18.763Z,0.00
2019-01-19T01:05:25.241Z,0.00
2019-01-19T01:06:19.592Z,0.00
2019-01-19T01:07:20.113Z,0.00
2019-01-19T01:08:20.313Z,0.00
2019-01-19T01:09:20.864Z,0.00
2019-01-19T01:10:20.947Z,0.00
2019-01-19T01:11:21.038Z,0.00
2019-01-19T01:12:21.797Z,0.00
2019-01-19T01:13:21.696Z,0.00
2019-01-19T01:14:21.762Z,0.00
2019-01-19T01:15:21.854Z,0.00
2019-01-19T01:16:22.130Z,0.00
2019-01-19T01:17:22.598Z,0.00
2019-01-19T01:18:22.681Z,0.00
2019-01-19T01:19:23.274Z,0.00
2019-01-19T01:20:23.631Z,0.00
2019-01-19T01:21:23.549Z,0.00
2019-01-19T01:22:23.752Z,0.00
2019-01-19T01:23:23.909Z,0.00
2019-01-19T01:24:24.233Z,0.00
2019-01-19T01:25:24.076Z,0.00
2019-01-19T01:26:24.173Z,0.00
2019-01-19T01:27:24.285Z,0.00
2019-01-19T01:28:24.568Z,0.00
2019-01-19T01:29:24.865Z,0.00
2019-01-19T01:30:25.161Z,0.00
2019-01-19T01:31:25.526Z,0.00
2019-01-19T01:32:25.597Z,0.00
2019-01-19T01:33:25.861Z,0.00
2019-01-19T01:34:26.324Z,0.00
2019-01-19T01:35:32.577Z,0.00
2019-01-19T01:36:27.169Z,0.00
2019-01-19T01:37:27.400Z,0.00
2019-01-19T01:38:27.377Z,0.00
2019-01-19T01:39:27.721Z,0.00
2019-01-19T01:40:28.011Z,0.00
2019-01-19T01:41:28.092Z,0.00
2019-01-19T01:42:28.468Z,0.00
2019-01-19T01:44:28.582Z,0.00
2019-01-19T01:45:29.030Z,0.00
2019-01-19T01:46:29.434Z,0.00
2019-01-19T01:47:29.792Z,0.00
2019-01-19T01:48:30.191Z,0.00
2019-01-19T01:49:30.432Z,0.00
2019-01-19T01:50:30.832Z,0.00
2019-01-19T01:51:31.088Z,0.00
2019-01-19T01:52:31.707Z,0.00
2019-01-19T01:53:31.307Z,0.00
2019-01-19T01:54:31.686Z,0.00
2019-01-19T01:55:31.977Z,0.00
2019-01-19T01:56:32.458Z,0.00
2019-01-19T01:57:32.769Z,0.00
2019-01-19T01:58:32.952Z,0.00
2019-01-19T01:59:32.831Z,0.00
2019-01-19T02:00:33.153Z,0.00
2019-01-19T02:01:33.359Z,0.00
2019-01-19T02:02:33.648Z,0.00
2019-01-19T02:03:33.883Z,0.00
2019-01-19T02:04:34.042Z,0.00
2019-01-19T02:05:40.202Z,0.00
2019-01-19T02:06:34.846Z,0.00
2019-01-19T02:07:35.185Z,0.00
2019-01-19T02:08:35.266Z,0.00
2019-01-19T02:09:35.693Z,0.00
2019-01-19T02:10:35.801Z,0.00
2019-01-19T02:11:35.876Z,0.00
2019-01-19T02:12:36.551Z,0.00
2019-01-19T02:13:36.397Z,0.00
2019-01-19T02:14:36.469Z,0.00
2019-01-19T02:16:36.824Z,0.00
2019-01-19T02:17:36.907Z,0.00
2019-01-19T02:18:37.412Z,0.00
2019-01-19T02:19:37.895Z,0.00
2019-01-19T02:20:38.034Z,0.00
2019-01-19T02:21:38.019Z,0.00
2019-01-19T02:22:38.634Z,0.00
2019-01-19T02:24:39.186Z,0.00
2019-01-19T02:25:39.401Z,0.00
2019-01-19T02:26:39.776Z,0.00
2019-01-19T02:27:39.757Z,0.00
2019-01-19T02:28:39.841Z,0.00
2019-01-19T02:29:40.439Z,0.00
2019-01-19T02:30:40.863Z,0.00
2019-01-19T02:31:41.281Z,0.00
2019-01-19T02:32:41.668Z,0.00
2019-01-19T02:33:41.873Z,0.00
2019-01-19T02:34:42.293Z,0.00
2019-01-19T02:35:48.470Z,0.00
2019-01-19T02:36:43.128Z,0.00
2019-01-19T02:37:43.431Z,0.00
2019-01-19T02:38:43.460Z,0.00
2019-01-19T02:39:43.428Z,0.00
2019-01-19T02:40:43.873Z,0.00
2019-01-19T02:41:44.169Z,0.00
2019-01-19T02:42:44.139Z,0.00
2019-01-19T02:43:44.454Z,0.00
2019-01-19T02:44:44.691Z,0.00
2019-01-19T02:45:44.868Z,0.00
2019-01-19T02:46:45.542Z,0.00
2019-01-19T02:47:45.627Z,0.00
2019-01-19T02:48:45.917Z,0.00
2019-01-19T02:49:47.579Z,0.00
2019-01-19T02:50:46.363Z,0.00
2019-01-19T02:51:46.481Z,0.00
2019-01-19T02:52:49.473Z,0.00
2019-01-19T02:53:47.070Z,0.00
2019-01-19T02:54:47.243Z,0.00
2019-01-19T02:55:47.647Z,0.00
2019-01-19T02:56:47.546Z,0.00
2019-01-19T02:57:47.950Z,0.00
2019-01-19T02:58:48.176Z,0.00
2019-01-19T02:59:48.415Z,0.00
2019-01-19T03:00:48.502Z,0.00
2019-01-19T03:01:48.439Z,0.00
2019-01-19T03:02:48.896Z,0.00
2019-01-19T03:03:48.824Z,0.00
2019-01-19T03:04:48.778Z,0.00
2019-01-19T03:05:55.984Z,0.00
2019-01-19T03:06:49.580Z,0.00
2019-01-19T03:07:49.964Z,0.00
2019-01-19T03:08:50.050Z,0.00
2019-01-19T03:09:50.434Z,0.00
2019-01-19T03:10:50.159Z,0.00
2019-01-19T03:11:50.296Z,0.00
2019-01-19T03:12:50.907Z,0.00
2019-01-19T03:13:51.021Z,0.00
2019-01-19T03:14:51.389Z,0.00
2019-01-19T03:15:51.734Z,0.00
2019-01-19T03:16:51.843Z,0.00
2019-01-19T03:17:52.484Z,0.00
2019-01-19T03:18:52.827Z,0.00
2019-01-19T03:19:52.903Z,0.00
2019-01-19T03:20:53.134Z,0.00
2019-01-19T03:21:53.244Z,0.00
2019-01-19T03:22:53.566Z,0.00
2019-01-19T03:23:53.803Z,0.00
2019-01-19T03:24:53.850Z,0.00
2019-01-19T03:25:54.081Z,0.00
2019-01-19T03:26:54.226Z,0.00
2019-01-19T03:27:54.412Z,0.00
2019-01-19T03:28:54.356Z,0.00
2019-01-19T03:29:54.811Z,0.00
2019-01-19T03:30:54.807Z,0.00
2019-01-19T03:31:55.191Z,0.00
2019-01-19T03:32:55.493Z,0.00
2019-01-19T03:33:55.884Z,0.00
2019-01-19T03:34:56.170Z,0.00
2019-01-19T03:36:04.137Z,0.00
2019-01-19T03:36:56.919Z,0.00
2019-01-19T03:37:57.227Z,0.00
2019-01-19T03:38:57.341Z,0.00
2019-01-19T03:39:57.770Z,0.00
2019-01-19T03:40:58.047Z,0.00
2019-01-19T03:41:58.448Z,0.00
2019-01-19T03:42:58.987Z,0.00
2019-01-19T03:43:58.904Z,0.00
2019-01-19T03:44:58.916Z,0.00
2019-01-19T03:45:59.216Z,0.00
2019-01-19T03:46:59.538Z,0.00
2019-01-19T03:47:59.941Z,0.00
2019-01-19T03:49:00.491Z,0.00
2019-01-19T03:50:01.080Z,0.00
2019-01-19T03:51:01.179Z,0.00
2019-01-19T03:52:01.353Z,0.00
2019-01-19T03:53:01.760Z,0.00
2019-01-19T03:54:01.687Z,0.00
2019-01-19T03:55:02.122Z,0.00
2019-01-19T03:56:02.458Z,0.00
2019-01-19T03:57:02.324Z,0.00
2019-01-19T03:58:02.869Z,0.00
2019-01-19T03:59:03.365Z,0.00
2019-01-19T04:00:03.707Z,0.00
2019-01-19T04:01:04.073Z,0.00
2019-01-19T04:02:04.066Z,0.00
2019-01-19T04:03:04.255Z,0.00
2019-01-19T04:04:04.658Z,0.00
2019-01-19T04:05:04.414Z,0.00
2019-01-19T04:06:12.428Z,0.00
2019-01-19T04:07:05.094Z,0.00
2019-01-19T04:08:04.834Z,0.00
2019-01-19T04:09:04.969Z,0.00
2019-01-19T04:10:05.341Z,0.00
2019-01-19T04:11:05.427Z,0.00
2019-01-19T04:12:05.782Z,0.00
2019-01-19T04:13:05.863Z,0.00
2019-01-19T04:14:06.085Z,0.00
2019-01-19T04:15:05.998Z,0.00
2019-01-19T04:16:06.226Z,0.00
2019-01-19T04:17:06.566Z,0.00
2019-01-19T04:18:06.735Z,0.00
2019-01-19T04:19:06.901Z,0.00
2019-01-19T04:20:06.983Z,0.00
2019-01-19T04:21:07.292Z,0.00
2019-01-19T04:22:07.321Z,0.00
2019-01-19T04:23:07.584Z,0.00
2019-01-19T04:24:08.088Z,0.00
2019-01-19T04:25:07.923Z,0.00
2019-01-19T04:26:08.205Z,0.00
2019-01-19T04:27:08.697Z,0.00
2019-01-19T04:28:08.949Z,0.00
2019-01-19T04:29:09.224Z,0.00
2019-01-19T04:30:09.512Z,0.00
2019-01-19T04:31:10.035Z,0.00
2019-01-19T04:32:10.611Z,0.00
2019-01-19T04:33:10.702Z,0.00
2019-01-19T04:34:10.822Z,0.00
2019-01-19T04:35:10.987Z,0.00
2019-01-19T04:36:11.090Z,0.00
2019-01-19T04:37:11.192Z,0.00
2019-01-19T04:38:11.372Z,0.00
2019-01-19T04:39:11.503Z,0.00
2019-01-19T04:40:11.709Z,0.00
2019-01-19T04:41:11.833Z,0.00
2019-01-19T04:42:11.980Z,0.00
2019-01-19T04:43:12.167Z,0.00
2019-01-19T04:44:12.314Z,0.00
2019-01-19T04:45:12.505Z,0.00
2019-01-19T04:46:12.624Z,0.00
2019-01-19T04:47:12.762Z,0.00
2019-01-19T04:48:12.843Z,0.00
2019-01-19T04:49:12.951Z,0.00
2019-01-19T04:50:13.067Z,0.00
2019-01-19T04:51:13.482Z,0.00
2019-01-19T04:52:13.665Z,0.00
2019-01-19T04:54:13.777Z,0.00
2019-01-19T04:55:13.958Z,0.00
2019-01-19T04:56:14.084Z,0.00
2019-01-19T04:57:14.183Z,0.00
2019-01-19T04:58:14.269Z,0.00
2019-01-19T04:59:14.392Z,0.00
2019-01-19T05:00:14.525Z,0.00
2019-01-19T05:01:14.528Z,0.00
2019-01-19T05:02:14.616Z,0.00
2019-01-19T05:03:14.656Z,0.00
2019-01-19T05:04:14.770Z,0.00
2019-01-19T05:05:14.877Z,0.00
2019-01-19T05:06:14.988Z,0.00
2019-01-19T05:07:15.090Z,0.00
2019-01-19T05:08:15.181Z,0.00
2019-01-19T05:09:15.242Z,0.00
2019-01-19T05:10:15.351Z,0.00
2019-01-19T05:11:15.465Z,0.00
2019-01-19T05:12:15.894Z,0.00
2019-01-19T05:13:15.869Z,0.00
2019-01-19T05:14:16.133Z,0.00
2019-01-19T05:15:16.393Z,0.00
2019-01-19T05:16:16.633Z,0.00
2019-01-19T05:17:16.877Z,0.00
2019-01-19T05:18:17.152Z,0.00
2019-01-19T05:19:17.500Z,0.00
2019-01-19T05:20:18.057Z,0.00
2019-01-19T05:21:17.813Z,0.00
2019-01-19T05:22:18.105Z,0.00
2019-01-19T05:23:18.603Z,0.00
2019-01-19T05:24:18.449Z,0.00
2019-01-19T05:25:18.701Z,0.00
2019-01-19T05:26:18.966Z,0.00
2019-01-19T05:27:19.222Z,0.00
2019-01-19T05:28:19.598Z,0.00
2019-01-19T05:29:19.838Z,0.00
2019-01-19T05:30:20.101Z,0.00
2019-01-19T05:31:20.426Z,0.00
2019-01-19T05:32:20.846Z,0.00
2019-01-19T05:33:21.081Z,0.00
2019-01-19T05:34:21.386Z,0.00
2019-01-19T05:35:21.711Z,0.00
2019-01-19T05:36:21.958Z,0.00
2019-01-19T05:37:22.216Z,0.00
2019-01-19T05:38:22.583Z,0.00
2019-01-19T05:39:22.819Z,0.00
2019-01-19T05:40:23.412Z,0.00
2019-01-19T05:41:23.155Z,0.00
2019-01-19T05:42:23.566Z,0.00
2019-01-19T05:43:23.808Z,0.00
2019-01-19T05:44:24.364Z,0.00
2019-01-19T05:45:24.690Z,0.00
2019-01-19T05:46:25.014Z,0.00
2019-01-19T05:47:25.542Z,0.00
2019-01-19T05:48:25.642Z,0.00
2019-01-19T05:49:25.735Z,0.00
2019-01-19T05:50:25.802Z,0.00
2019-01-19T05:51:25.918Z,0.00
2019-01-19T05:52:26.053Z,0.00
2019-01-19T05:53:26.188Z,0.00
2019-01-19T05:54:26.297Z,0.00
2019-01-19T05:55:26.410Z,0.00
2019-01-19T05:56:26.527Z,0.00
2019-01-19T05:57:26.621Z,0.00
2019-01-19T05:58:26.740Z,0.00
2019-01-19T05:59:26.842Z,0.00
2019-01-19T06:00:26.990Z,0.00
2019-01-19T06:01:28.193Z,0.00
2019-01-19T06:02:27.333Z,0.00
2019-01-19T06:03:27.484Z,0.00
2019-01-19T06:04:27.689Z,0.00
2019-01-19T06:05:27.795Z,0.00
2019-01-19T06:06:27.868Z,0.00
2019-01-19T06:07:27.975Z,0.00
2019-01-19T06:08:28.032Z,0.00
2019-01-19T06:09:28.092Z,0.00
2019-01-19T06:10:28.176Z,0.00
2019-01-19T06:11:28.209Z,0.00
2019-01-19T06:12:28.316Z,0.00
2019-01-19T06:13:28.371Z,0.00
2019-01-19T06:14:28.438Z,0.00
2019-01-19T06:15:28.493Z,0.00
2019-01-19T06:16:28.604Z,0.00
2019-01-19T06:17:28.789Z,0.00
2019-01-19T06:18:28.908Z,0.00
2019-01-19T06:19:29.017Z,0.00
2019-01-19T06:20:29.121Z,0.00
2019-01-19T06:21:29.227Z,0.00
2019-01-19T06:22:29.714Z,0.00
2019-01-19T06:23:29.760Z,0.00
2019-01-19T06:24:29.844Z,0.00
2019-01-19T06:25:29.884Z,0.00
2019-01-19T06:26:29.911Z,0.00
2019-01-19T06:27:29.960Z,0.00
2019-01-19T06:28:29.996Z,0.00
2019-01-19T06:29:30.082Z,0.00
2019-01-19T06:30:30.136Z,0.00
2019-01-19T06:31:30.180Z,0.00
2019-01-19T06:32:30.235Z,1.00
2019-01-19T06:33:30.300Z,0.00
2019-01-19T06:34:30.428Z,0.00
2019-01-19T06:35:30.769Z,1.00
2019-01-19T06:36:30.888Z,1.00
2019-01-19T06:37:30.970Z,1.00
2019-01-19T06:38:31.045Z,2.00
2019-01-19T06:39:31.070Z,2.00
2019-01-19T06:40:31.050Z,2.00
2019-01-19T06:41:31.444Z,3.00
2019-01-19T06:42:32.029Z,3.00
2019-01-19T06:43:31.775Z,4.00
2019-01-19T06:44:32.175Z,4.00
2019-01-19T06:45:32.557Z,5.00
2019-01-19T06:46:32.806Z,6.00
2019-01-19T06:47:33.057Z,7.00
2019-01-19T06:48:33.353Z,8.00
2019-01-19T06:49:33.923Z,10.00
2019-01-19T06:50:33.964Z,11.00
2019-01-19T06:51:34.035Z,13.00
2019-01-19T06:52:34.216Z,16.00
2019-01-19T06:53:34.035Z,18.00
2019-01-19T06:54:34.420Z,22.00
2019-01-19T06:55:34.874Z,26.00
2019-01-19T06:56:34.663Z,31.00
2019-01-19T06:57:35.080Z,36.00
2019-01-19T06:58:35.315Z,41.00
2019-01-19T06:59:35.637Z,48.00
2019-01-19T07:00:35.920Z,56.00
2019-01-19T07:01:36.163Z,64.00
2019-01-19T07:02:36.424Z,73.00
2019-01-19T07:03:36.745Z,84.00
2019-01-19T07:04:36.983Z,95.00
2019-01-19T07:05:37.254Z,108.00
2019-01-19T07:06:37.487Z,121.00
2019-01-19T07:07:37.795Z,138.00
2019-01-19T07:08:38.161Z,152.00
2019-01-19T07:09:38.664Z,170.00
2019-01-19T07:10:39.174Z,188.00
2019-01-19T07:11:39.036Z,207.00
2019-01-19T07:12:39.363Z,228.00
2019-01-19T07:13:39.600Z,251.00
2019-01-19T07:14:39.881Z,274.00
2019-01-19T07:15:40.494Z,298.00
2019-01-19T07:16:40.469Z,321.00
2019-01-19T07:17:40.551Z,347.00
2019-01-19T07:18:40.658Z,376.00
2019-01-19T07:19:40.725Z,405.00
2019-01-19T07:20:40.823Z,435.00
2019-01-19T07:21:40.896Z,467.00
2019-01-19T07:22:41.017Z,496.00
2019-01-19T07:23:41.107Z,527.00
2019-01-19T07:24:41.249Z,559.00
2019-01-19T07:25:41.347Z,593.00
2019-01-19T07:26:41.435Z,634.00
2019-01-19T07:27:41.548Z,671.00
2019-01-19T07:28:41.652Z,702.00
2019-01-19T07:29:41.770Z,737.00
2019-01-19T07:30:41.936Z,772.00
2019-01-19T07:31:42.023Z,810.00
2019-01-19T07:32:42.136Z,849.00
2019-01-19T07:33:42.489Z,886.00
2019-01-19T07:34:42.651Z,926.00
2019-01-19T07:35:42.790Z,967.00
2019-01-19T07:36:42.953Z,999.00
2019-01-19T07:37:43.151Z,1052.00
2019-01-19T07:38:43.267Z,1092.00
2019-01-19T07:39:43.307Z,1119.00
2019-01-19T07:40:43.391Z,1159.00
2019-01-19T07:41:43.479Z,1197.00
2019-01-19T07:42:43.589Z,1242.00
2019-01-19T07:43:44.035Z,1276.00
2019-01-19T07:44:44.136Z,1316.00
2019-01-19T07:45:44.240Z,1351.00
2019-01-19T07:46:44.330Z,1388.00
2019-01-19T07:47:44.587Z,1439.00
2019-01-19T07:48:44.656Z,1492.00
2019-01-19T07:49:44.752Z,1534.00
2019-01-19T07:50:44.980Z,1580.00
2019-01-19T07:51:45.046Z,1618.00
2019-01-19T07:52:45.187Z,1658.00
2019-01-19T07:53:45.320Z,1695.00
2019-01-19T07:54:45.620Z,1744.00
2019-01-19T07:55:45.724Z,1799.00
2019-01-19T07:56:45.851Z,1840.00
2019-01-19T07:57:45.918Z,1878.00
2019-01-19T07:58:46.019Z,1917.00
2019-01-19T07:59:46.023Z,1959.00
2019-01-19T08:00:46.285Z,2003.00
2019-01-19T08:01:46.784Z,2052.00
2019-01-19T08:02:46.687Z,2094.00
2019-01-19T08:03:47.112Z,2131.00
2019-01-19T08:04:47.433Z,2171.00
2019-01-19T08:05:47.702Z,2213.00
2019-01-19T08:07:47.982Z,2307.00
2019-01-19T08:09:48.304Z,2418.00
2019-01-19T08:10:48.554Z,2459.00
2019-01-19T08:11:48.858Z,2536.00
2019-01-19T08:12:49.192Z,2591.00
2019-01-19T08:13:49.620Z,2641.00
2019-01-19T08:14:49.902Z,2710.00
2019-01-19T08:15:50.559Z,2781.00
2019-01-19T08:16:50.332Z,2856.00
2019-01-19T08:17:50.880Z,2930.00
2019-01-19T08:18:50.988Z,3002.00
2019-01-19T08:19:50.725Z,3071.00
2019-01-19T08:20:51.105Z,3139.00
2019-01-19T08:21:51.536Z,3201.00
2019-01-19T08:22:51.784Z,3256.00
2019-01-19T08:23:52.180Z,3297.00
2019-01-19T08:24:52.609Z,3348.00
2019-01-19T08:25:52.826Z,3424.00
2019-01-19T08:26:53.059Z,3488.00
2019-01-19T08:27:53.289Z,3560.00
2019-01-19T08:28:54.031Z,3626.00
2019-01-19T08:29:53.859Z,3688.00
2019-01-19T08:30:54.226Z,3735.00
2019-01-19T08:31:54.862Z,3781.00
2019-01-19T08:32:54.671Z,3821.00
2019-01-19T08:33:55.829Z,3864.00
2019-01-19T08:34:55.395Z,3901.00
2019-01-19T08:35:56.036Z,3942.00
2019-01-19T08:36:56.132Z,3991.00
2019-01-19T08:37:56.236Z,4040.00
2019-01-19T08:38:56.401Z,4085.00
2019-01-19T08:39:56.475Z,4137.00
2019-01-19T08:41:56.618Z,4234.00
2019-01-19T08:42:56.688Z,4286.00
2019-01-19T08:43:56.999Z,4296.00
2019-01-19T08:44:57.303Z,4208.00
2019-01-19T08:45:57.455Z,4228.00
2019-01-19T08:46:57.589Z,4367.00
2019-01-19T08:47:57.690Z,4407.00
2019-01-19T08:48:57.782Z,4433.00
2019-01-19T08:49:57.891Z,4458.00
2019-01-19T08:50:57.998Z,4501.00
2019-01-19T08:51:58.132Z,4548.00
2019-01-19T08:53:58.199Z,4710.00
2019-01-19T08:54:58.236Z,4857.00
2019-01-19T08:55:58.254Z,5074.00
2019-01-19T08:56:58.309Z,5889.00
2019-01-19T08:57:58.327Z,9172.00
2019-01-19T08:58:58.419Z,12892.00
2019-01-19T08:59:58.471Z,65536.00
2019-01-19T09:00:58.542Z,65536.00
2019-01-19T09:01:58.608Z,65536.00
2019-01-19T09:02:58.718Z,65536.00
2019-01-19T09:03:58.761Z,65536.00
2019-01-19T09:04:58.851Z,65536.00
2019-01-19T09:05:58.975Z,65536.00
2019-01-19T09:06:59.210Z,65536.00
2019-01-19T09:07:59.308Z,65536.00
2019-01-19T09:08:59.370Z,65536.00
2019-01-19T09:09:59.413Z,65536.00
2019-01-19T09:10:59.494Z,65536.00
2019-01-19T09:11:59.638Z,65536.00
2019-01-19T09:12:59.746Z,65536.00
2019-01-19T09:13:59.849Z,65536.00
2019-01-19T09:14:59.896Z,10595.00
2019-01-19T09:15:59.951Z,10047.00
2019-01-19T09:17:00.410Z,65536.00
2019-01-19T09:18:00.500Z,65536.00
2019-01-19T09:19:00.610Z,65536.00
2019-01-19T09:20:00.686Z,65536.00
2019-01-19T09:21:00.852Z,65536.00
2019-01-19T09:22:00.985Z,65536.00
2019-01-19T09:23:01.053Z,65536.00
2019-01-19T09:24:01.358Z,65536.00
2019-01-19T09:25:01.580Z,65536.00
2019-01-19T09:26:01.671Z,65536.00
2019-01-19T09:27:01.827Z,11516.00
2019-01-19T09:28:01.942Z,65536.00
2019-01-19T09:29:01.980Z,65536.00
2019-01-19T09:30:02.081Z,65536.00
2019-01-19T09:31:02.504Z,12367.00
2019-01-19T09:32:02.567Z,11989.00
2019-01-19T09:33:02.560Z,65536.00
2019-01-19T09:34:03.110Z,65536.00
2019-01-19T09:35:02.977Z,65536.00
2019-01-19T09:36:03.582Z,65536.00
2019-01-19T09:37:03.685Z,65536.00
2019-01-19T09:38:03.823Z,12034.00
2019-01-19T09:39:03.898Z,7144.00
2019-01-19T09:40:04.004Z,8081.00
2019-01-19T09:41:04.273Z,10322.00
2019-01-19T09:42:04.117Z,65536.00
2019-01-19T09:43:04.747Z,65536.00
2019-01-19T09:44:04.495Z,65536.00
2019-01-19T09:45:04.810Z,65536.00
2019-01-19T09:46:05.045Z,12766.00
2019-01-19T09:47:05.447Z,65536.00
2019-01-19T09:48:05.744Z,65536.00
2019-01-19T09:49:06.161Z,65536.00
2019-01-19T09:50:06.402Z,65536.00
2019-01-19T09:51:06.856Z,65536.00
2019-01-19T09:52:07.089Z,65536.00
2019-01-19T09:53:07.365Z,65536.00
2019-01-19T09:54:07.897Z,65536.00
2019-01-19T09:55:07.760Z,11550.00
2019-01-19T09:56:08.202Z,65536.00
2019-01-19T09:57:08.695Z,65536.00
2019-01-19T09:58:09.084Z,65536.00
2019-01-19T09:59:09.461Z,9745.00
2019-01-19T10:00:09.779Z,7214.00
2019-01-19T10:01:10.249Z,7833.00
2019-01-19T10:02:10.869Z,8466.00
2019-01-19T10:03:10.990Z,8305.00
2019-01-19T10:04:11.132Z,12732.00
2019-01-19T10:05:11.245Z,65536.00
2019-01-19T10:06:11.563Z,65536.00
2019-01-19T10:07:11.675Z,65536.00
2019-01-19T10:08:11.779Z,8638.00
2019-01-19T10:09:11.889Z,65536.00
2019-01-19T10:10:11.995Z,65536.00
2019-01-19T10:11:12.107Z,65536.00
2019-01-19T10:12:12.214Z,11591.00
2019-01-19T10:13:12.362Z,8949.00
2019-01-19T10:14:12.498Z,7666.00
2019-01-19T10:15:12.653Z,7220.00
2019-01-19T10:16:12.650Z,9408.00
2019-01-19T10:17:12.755Z,10602.00
2019-01-19T10:18:12.867Z,10707.00
2019-01-19T10:19:12.992Z,9920.00
2019-01-19T10:20:13.071Z,9076.00
2019-01-19T10:21:13.202Z,8817.00
2019-01-19T10:22:13.262Z,9151.00
2019-01-19T10:23:13.371Z,12108.00
2019-01-19T10:24:13.424Z,11677.00
2019-01-19T10:25:13.541Z,9223.00
2019-01-19T10:26:13.648Z,8461.00
2019-01-19T10:27:13.766Z,8274.00
2019-01-19T10:28:13.816Z,8442.00
2019-01-19T10:29:13.881Z,8180.00
2019-01-19T10:30:13.999Z,7914.00
2019-01-19T10:31:14.072Z,7030.00
2019-01-19T10:32:14.179Z,6796.00
2019-01-19T10:33:14.288Z,7114.00
2019-01-19T10:34:14.363Z,7856.00
2019-01-19T10:35:14.511Z,8487.00
2019-01-19T10:36:14.602Z,9168.00
2019-01-19T10:37:14.624Z,8797.00
2019-01-19T10:38:14.700Z,7993.00
2019-01-19T10:39:14.770Z,9406.00
2019-01-19T10:40:14.858Z,11567.00
2019-01-19T10:41:14.930Z,11160.00
2019-01-19T10:42:14.980Z,9448.00
2019-01-19T10:43:15.031Z,9372.00
2019-01-19T10:44:15.098Z,10304.00
2019-01-19T10:45:15.161Z,65536.00
2019-01-19T10:46:15.693Z,65536.00
2019-01-19T10:47:15.780Z,65536.00
2019-01-19T10:48:15.928Z,8792.00
2019-01-19T10:49:15.934Z,8500.00
2019-01-19T10:50:16.031Z,8631.00
2019-01-19T10:51:16.046Z,8980.00
2019-01-19T10:52:16.079Z,7045.00
2019-01-19T10:53:16.410Z,5594.00
2019-01-19T10:54:16.883Z,5690.00
2019-01-19T10:55:16.645Z,5759.00
2019-01-19T10:56:16.842Z,7618.00
2019-01-19T10:57:17.135Z,9355.00
2019-01-19T10:58:17.359Z,8863.00
2019-01-19T10:59:17.839Z,8670.00
2019-01-19T11:00:18.382Z,9438.00
2019-01-19T11:01:18.726Z,65536.00
2019-01-19T11:02:18.985Z,65536.00
2019-01-19T11:03:18.760Z,65536.00
2019-01-19T11:04:19.079Z,65536.00
2019-01-19T11:05:19.551Z,8628.00
2019-01-19T11:06:19.851Z,65536.00
2019-01-19T11:07:20.158Z,65536.00
2019-01-19T11:08:20.469Z,65536.00
2019-01-19T11:09:20.719Z,8284.00
2019-01-19T11:10:21.104Z,7950.00
2019-01-19T11:11:21.555Z,9096.00
2019-01-19T11:12:21.363Z,65536.00
2019-01-19T11:13:21.824Z,8624.00
2019-01-19T11:14:22.107Z,7239.00
2019-01-19T11:15:22.358Z,7094.00
2019-01-19T11:16:22.756Z,8557.00
2019-01-19T11:17:23.027Z,8471.00
2019-01-19T11:18:23.459Z,8266.00
2019-01-19T11:19:26.991Z,8358.00
2019-01-19T11:20:23.756Z,7987.00
2019-01-19T11:21:24.304Z,7640.00
2019-01-19T11:22:24.550Z,7189.00
2019-01-19T11:23:24.801Z,6730.00
2019-01-19T11:24:25.138Z,5906.00
2019-01-19T11:25:25.700Z,6558.00
2019-01-19T11:26:25.848Z,6760.00
2019-01-19T11:27:25.949Z,6882.00
2019-01-19T11:28:26.062Z,6573.00
2019-01-19T11:29:26.147Z,6109.00
2019-01-19T11:30:26.257Z,65536.00
2019-01-19T11:31:26.488Z,65536.00
2019-01-19T11:32:26.585Z,65536.00
2019-01-19T11:33:26.696Z,65536.00
2019-01-19T11:34:26.812Z,65536.00
2019-01-19T11:35:26.932Z,7164.00
2019-01-19T11:36:27.060Z,6851.00
2019-01-19T11:37:27.170Z,6657.00
2019-01-19T11:38:27.272Z,6695.00
2019-01-19T11:39:27.386Z,6512.00
2019-01-19T11:40:27.538Z,6217.00
2019-01-19T11:41:27.952Z,5901.00
2019-01-19T11:42:28.052Z,5756.00
2019-01-19T11:43:28.164Z,5506.00
2019-01-19T11:44:28.277Z,5356.00
2019-01-19T11:45:28.316Z,5524.00
2019-01-19T11:46:28.390Z,5591.00
2019-01-19T11:47:28.456Z,5578.00
2019-01-19T11:48:28.513Z,5480.00
2019-01-19T11:49:28.580Z,5369.00
2019-01-19T11:50:28.720Z,5322.00
2019-01-19T11:51:28.790Z,5503.00
2019-01-19T11:52:28.908Z,5655.00
2019-01-19T11:53:28.976Z,5540.00
2019-01-19T11:54:29.037Z,5372.00
2019-01-19T11:55:29.091Z,5354.00
2019-01-19T11:56:29.272Z,5216.00
2019-01-19T11:57:29.365Z,5284.00
2019-01-19T11:58:29.395Z,5312.00
2019-01-19T11:59:29.470Z,5138.00
2019-01-19T12:00:29.642Z,5235.00
2019-01-19T12:01:29.597Z,5335.00
2019-01-19T12:02:36.787Z,5251.00
2019-01-19T12:03:29.732Z,5235.00
2019-01-19T12:04:29.795Z,5201.00
2019-01-19T12:05:29.852Z,5313.00
2019-01-19T12:06:29.917Z,5593.00
2019-01-19T12:07:29.949Z,5564.00
2019-01-19T12:08:29.980Z,5637.00
2019-01-19T12:09:30.064Z,6132.00
2019-01-19T12:10:30.152Z,5892.00
2019-01-19T12:11:30.208Z,5624.00
2019-01-19T12:12:30.265Z,5809.00
2019-01-19T12:13:30.305Z,5877.00
2019-01-19T12:14:30.349Z,5817.00
2019-01-19T12:15:30.423Z,6196.00
2019-01-19T12:16:30.538Z,6390.00
2019-01-19T12:17:30.643Z,6195.00
2019-01-19T12:18:30.733Z,6092.00
2019-01-19T12:19:30.826Z,6106.00
2019-01-19T12:20:30.873Z,6157.00
2019-01-19T12:21:31.198Z,6397.00
2019-01-19T12:22:31.197Z,6567.00
2019-01-19T12:23:31.414Z,6340.00
2019-01-19T12:24:31.415Z,6158.00
2019-01-19T12:25:31.613Z,6274.00
2019-01-19T12:26:31.743Z,6237.00
2019-01-19T12:27:31.822Z,6585.00
2019-01-19T12:28:31.556Z,6249.00
2019-01-19T12:29:31.949Z,6119.00
2019-01-19T12:30:32.320Z,6466.00
2019-01-19T12:31:32.729Z,6759.00
2019-01-19T12:32:33.030Z,6514.00
2019-01-19T12:33:33.318Z,6301.00
2019-01-19T12:34:33.806Z,6326.00
2019-01-19T12:35:34.056Z,6158.00
2019-01-19T12:36:34.330Z,6290.00
2019-01-19T12:37:34.724Z,6327.00
2019-01-19T12:38:35.075Z,6309.00
2019-01-19T12:39:35.565Z,6233.00
2019-01-19T12:40:35.825Z,6110.00
2019-01-19T12:41:36.089Z,6212.00
2019-01-19T12:42:36.359Z,5935.00
2019-01-19T12:43:36.834Z,5822.00
2019-01-19T12:44:37.167Z,5942.00
2019-01-19T12:45:37.661Z,5928.00
2019-01-19T12:46:37.716Z,5940.00
2019-01-19T12:47:37.929Z,6070.00
2019-01-19T12:48:38.234Z,6320.00
2019-01-19T12:49:38.570Z,6357.00
2019-01-19T12:50:38.838Z,6240.00
2019-01-19T12:51:39.327Z,6311.00